WXM80 ListenWXM80 Stop

You find our weather info also at:

UK Metoffice

WeatherCloud

Weather Underground

Northeastern Weather Network

AWEKAS

Citizen Weather Observer Program (CWOP)

HAMweather, WeatherForYou, PWS Weather


Weather Underground History page Text

Daily Summary for August 18, 2017 Units:  Both    English   Metric
« Previous Day
Next Day »
Daily Weekly Monthly Yearly Custom
  High: Low: Average:
Temperature: 84.2 °F /  29 °C 70.6 °F /  21.4 °C 76.9 °F /  24.9 °C
Dew Point: 79.1 °F /  26.2 °C 68.8 °F /  20.4 °C 74.7 °F /  23.7 °C
Humidity: 98 % 82 % 93 %
Wind Speed: 6.0 mph /  9.7 km/h - 1 mph /  1.6 km/h
Wind Gust: 12.0 mph /  19.3 km/h - -
Wind:- - South
Pressure: 29.93 in /  1013.4 hPa 29.71 in /  1006 hPa -
Precipitation: 1.69 in /  42.93 mm    
Historical Graphs
 
 
Tabular Data for August 18, 2017
Time Temperature Dew Point Pressure Wind Wind Speed Wind Gust Humidity Rainfall Rate (Hourly)
00:03 70.6 °F /  21.4 °C 68.8 °F /  20.4 °C 29.93 in /  1013.4 hPa Calm   1.2 mph /  1.9 km/h 94 % 0.00 in /  0 mm
00:08 70.8 °F /  21.6 °C 69.0 °F /  20.6 °C 29.92 in /  1013.1 hPa SE 0.3 mph /  0.5 km/h 2.3 mph /  3.7 km/h 94 % 0.00 in /  0 mm
00:13 71.0 °F /  21.7 °C 69.5 °F /  20.8 °C 29.92 in /  1013.1 hPa SE 1.0 mph /  1.6 km/h 1.2 mph /  1.9 km/h 95 % 0.00 in /  0 mm
00:18 71.2 °F /  21.8 °C 69.7 °F /  20.9 °C 29.92 in /  1013.1 hPa SE 0.1 mph /  0.2 km/h 1.0 mph /  1.6 km/h 95 % 0.00 in /  0 mm
00:24 71.4 °F /  21.9 °C 69.9 °F /  21.1 °C 29.91 in /  1012.8 hPa SE 1.3 mph /  2.1 km/h 3.5 mph /  5.6 km/h 95 % 0.00 in /  0 mm
00:29 71.5 °F /  21.9 °C 70.0 °F /  21.1 °C 29.92 in /  1013.1 hPa Calm   1.2 mph /  1.9 km/h 95 % 0.00 in /  0 mm
00:34 71.7 °F /  22.1 °C 70.2 °F /  21.2 °C 29.92 in /  1013.1 hPa SE 0.3 mph /  0.5 km/h 1.2 mph /  1.9 km/h 95 % 0.00 in /  0 mm
00:39 71.7 °F /  22.1 °C 70.2 °F /  21.2 °C 29.92 in /  1013.1 hPa Calm     95 % 0.00 in /  0 mm
00:44 71.9 °F /  22.2 °C 70.4 °F /  21.3 °C 29.91 in /  1012.8 hPa Calm     95 % 0.00 in /  0 mm
00:49 72.0 °F /  22.2 °C 70.5 °F /  21.4 °C 29.91 in /  1012.8 hPa SE 0.2 mph /  0.3 km/h 3.5 mph /  5.6 km/h 95 % 0.00 in /  0 mm
00:54 72.1 °F /  22.3 °C 70.6 °F /  21.4 °C 29.91 in /  1012.8 hPa Calm   1.2 mph /  1.9 km/h 95 % 0.00 in /  0 mm
00:59 72.1 °F /  22.3 °C 70.6 °F /  21.4 °C 29.91 in /  1012.8 hPa Calm     95 % 0.00 in /  0 mm
01:04 72.2 °F /  22.3 °C 70.7 °F /  21.5 °C 29.90 in /  1012.4 hPa Calm   1.0 mph /  1.6 km/h 95 % 0.00 in /  0 mm
01:09 72.2 °F /  22.3 °C 70.7 °F /  21.5 °C 29.90 in /  1012.4 hPa SE 0.6 mph /  1 km/h 3.0 mph /  4.8 km/h 95 % 0.00 in /  0 mm
01:14 72.3 °F /  22.4 °C 70.8 °F /  21.6 °C 29.90 in /  1012.4 hPa Calm     95 % 0.00 in /  0 mm
01:19 72.4 °F /  22.4 °C 70.9 °F /  21.6 °C 29.90 in /  1012.4 hPa Calm   1.2 mph /  1.9 km/h 95 % 0.00 in /  0 mm
01:24 72.5 °F /  22.5 °C 71.0 °F /  21.7 °C 29.90 in /  1012.4 hPa SE 0.2 mph /  0.3 km/h 1.2 mph /  1.9 km/h 95 % 0.00 in /  0 mm
01:29 72.6 °F /  22.6 °C 71.1 °F /  21.7 °C 29.90 in /  1012.4 hPa SE 0.7 mph /  1.1 km/h 2.3 mph /  3.7 km/h 95 % 0.00 in /  0 mm
01:35 72.7 °F /  22.6 °C 71.2 °F /  21.8 °C 29.89 in /  1012.1 hPa SE 1.7 mph /  2.7 km/h 3.5 mph /  5.6 km/h 95 % 0.00 in /  0 mm
01:40 72.8 °F /  22.7 °C 71.3 °F /  21.8 °C 29.89 in /  1012.1 hPa SE 0.2 mph /  0.3 km/h 2.0 mph /  3.2 km/h 95 % 0.00 in /  0 mm
01:44 72.9 °F /  22.7 °C 71.4 °F /  21.9 °C 29.89 in /  1012.1 hPa SE 1.1 mph /  1.8 km/h 3.5 mph /  5.6 km/h 95 % 0.00 in /  0 mm
01:49 73.0 °F /  22.8 °C 71.5 °F /  21.9 °C 29.89 in /  1012.1 hPa SE 1.3 mph /  2.1 km/h 3.5 mph /  5.6 km/h 95 % 0.00 in /  0 mm
01:54 73.0 °F /  22.8 °C 71.5 °F /  21.9 °C 29.88 in /  1011.7 hPa SE 0.7 mph /  1.1 km/h 2.0 mph /  3.2 km/h 95 % 0.00 in /  0 mm
01:59 73.1 °F /  22.8 °C 71.6 °F /  22 °C 29.88 in /  1011.7 hPa Calm     95 % 0.00 in /  0 mm
02:04 73.1 °F /  22.8 °C 71.6 °F /  22 °C 29.88 in /  1011.7 hPa Calm   1.2 mph /  1.9 km/h 95 % 0.00 in /  0 mm
02:09 73.1 °F /  22.8 °C 71.6 °F /  22 °C 29.88 in /  1011.7 hPa Calm   2.3 mph /  3.7 km/h 95 % 0.00 in /  0 mm
02:14 73.1 °F /  22.8 °C 71.6 °F /  22 °C 29.88 in /  1011.7 hPa Calm     95 % 0.00 in /  0 mm
02:19 73.1 °F /  22.8 °C 71.6 °F /  22 °C 29.88 in /  1011.7 hPa SE 0.2 mph /  0.3 km/h   95 % 0.00 in /  0 mm
02:24 73.2 °F /  22.9 °C 71.7 °F /  22.1 °C 29.87 in /  1011.4 hPa SE 0.6 mph /  1 km/h 2.3 mph /  3.7 km/h 95 % 0.00 in /  0 mm
02:29 73.3 °F /  22.9 °C 71.8 °F /  22.1 °C 29.87 in /  1011.4 hPa SE 0.3 mph /  0.5 km/h 3.5 mph /  5.6 km/h 95 % 0.00 in /  0 mm
02:34 73.4 °F /  23 °C 71.9 °F /  22.2 °C 29.87 in /  1011.4 hPa SSE 2.6 mph /  4.2 km/h 6.9 mph /  11.1 km/h 95 % 0.00 in /  0 mm
02:39 73.5 °F /  23.1 °C 72.0 °F /  22.2 °C 29.87 in /  1011.4 hPa Calm     95 % 0.00 in /  0 mm
02:45 73.5 °F /  23.1 °C 72.0 °F /  22.2 °C 29.87 in /  1011.4 hPa Calm     95 % 0.00 in /  0 mm
02:50 73.5 °F /  23.1 °C 72.0 °F /  22.2 °C 29.87 in /  1011.4 hPa SE 0.5 mph /  0.8 km/h 2.3 mph /  3.7 km/h 95 % 0.00 in /  0 mm
02:55 73.6 °F /  23.1 °C 72.1 °F /  22.3 °C 29.87 in /  1011.4 hPa Calm     95 % 0.00 in /  0 mm
03:00 73.7 °F /  23.2 °C 72.2 °F /  22.3 °C 29.87 in /  1011.4 hPa Calm     95 % 0.00 in /  0 mm
03:05 73.7 °F /  23.2 °C 72.2 °F /  22.3 °C 29.87 in /  1011.4 hPa Calm     95 % 0.00 in /  0 mm
03:10 73.7 °F /  23.2 °C 72.2 °F /  22.3 °C 29.87 in /  1011.4 hPa Calm     95 % 0.00 in /  0 mm
03:15 73.7 °F /  23.2 °C 72.2 °F /  22.3 °C 29.87 in /  1011.4 hPa Calm     95 % 0.00 in /  0 mm
03:20 73.7 °F /  23.2 °C 72.2 °F /  22.3 °C 29.87 in /  1011.4 hPa Calm     95 % 0.00 in /  0 mm
03:25 73.7 °F /  23.2 °C 72.2 °F /  22.3 °C 29.87 in /  1011.4 hPa Calm     95 % 0.00 in /  0 mm
03:30 73.8 °F /  23.2 °C 72.3 °F /  22.4 °C 29.87 in /  1011.4 hPa SE 0.4 mph /  0.6 km/h 2.3 mph /  3.7 km/h 95 % 0.00 in /  0 mm
03:35 73.8 °F /  23.2 °C 72.3 °F /  22.4 °C 29.87 in /  1011.4 hPa Calm     95 % 0.00 in /  0 mm
03:40 73.9 °F /  23.3 °C 72.4 °F /  22.4 °C 29.87 in /  1011.4 hPa Calm     95 % 0.00 in /  0 mm
03:45 73.9 °F /  23.3 °C 72.4 °F /  22.4 °C 29.87 in /  1011.4 hPa Calm   1.2 mph /  1.9 km/h 95 % 0.00 in /  0 mm
03:50 74.0 °F /  23.3 °C 72.5 °F /  22.5 °C 29.86 in /  1011.1 hPa SE 0.7 mph /  1.1 km/h 3.5 mph /  5.6 km/h 95 % 0.00 in /  0 mm
03:55 74.2 °F /  23.4 °C 72.7 °F /  22.6 °C 29.86 in /  1011.1 hPa SE 0.2 mph /  0.3 km/h 1.2 mph /  1.9 km/h 95 % 0.00 in /  0 mm
04:00 74.3 °F /  23.5 °C 72.8 °F /  22.7 °C 29.86 in /  1011.1 hPa SSE 0.7 mph /  1.1 km/h 1.2 mph /  1.9 km/h 95 % 0.00 in /  0 mm
04:05 74.4 °F /  23.6 °C 72.9 °F /  22.7 °C 29.86 in /  1011.1 hPa Calm   1.2 mph /  1.9 km/h 95 % 0.00 in /  0 mm
04:10 74.6 °F /  23.7 °C 72.8 °F /  22.7 °C 29.86 in /  1011.1 hPa Calm   2.3 mph /  3.7 km/h 94 % 0.00 in /  0 mm
04:15 74.7 °F /  23.7 °C 72.9 °F /  22.7 °C 29.86 in /  1011.1 hPa Calm   1.2 mph /  1.9 km/h 94 % 0.00 in /  0 mm
04:20 74.8 °F /  23.8 °C 73.0 °F /  22.8 °C 29.86 in /  1011.1 hPa SSE 0.1 mph /  0.2 km/h 2.3 mph /  3.7 km/h 94 % 0.00 in /  0 mm
04:25 74.9 °F /  23.8 °C 72.7 °F /  22.6 °C 29.87 in /  1011.4 hPa SSE 0.1 mph /  0.2 km/h 2.0 mph /  3.2 km/h 93 % 0.00 in /  0 mm
04:30 74.9 °F /  23.8 °C 72.7 °F /  22.6 °C 29.86 in /  1011.1 hPa SSE 0.8 mph /  1.3 km/h 3.0 mph /  4.8 km/h 93 % 0.00 in /  0 mm
04:35 75.1 °F /  23.9 °C 72.9 °F /  22.7 °C 29.86 in /  1011.1 hPa SSE 0.8 mph /  1.3 km/h 3.0 mph /  4.8 km/h 93 % 0.00 in /  0 mm
04:40 75.1 °F /  23.9 °C 72.9 °F /  22.7 °C 29.86 in /  1011.1 hPa SSE 0.4 mph /  0.6 km/h 3.5 mph /  5.6 km/h 93 % 0.00 in /  0 mm
04:45 75.2 °F /  24 °C 72.7 °F /  22.6 °C 29.86 in /  1011.1 hPa SSE 0.8 mph /  1.3 km/h 2.3 mph /  3.7 km/h 92 % 0.00 in /  0 mm
04:50 75.2 °F /  24 °C 72.7 °F /  22.6 °C 29.86 in /  1011.1 hPa SSE 0.3 mph /  0.5 km/h 1.2 mph /  1.9 km/h 92 % 0.00 in /  0 mm
04:55 75.3 °F /  24.1 °C 72.8 °F /  22.7 °C 29.86 in /  1011.1 hPa SE 1.5 mph /  2.4 km/h 2.3 mph /  3.7 km/h 92 % 0.00 in /  0 mm
05:00 75.3 °F /  24.1 °C 72.8 °F /  22.7 °C 29.86 in /  1011.1 hPa SE 0.6 mph /  1 km/h 2.0 mph /  3.2 km/h 92 % 0.00 in /  0 mm
05:05 75.3 °F /  24.1 °C 72.8 °F /  22.7 °C 29.86 in /  1011.1 hPa SE 1.1 mph /  1.8 km/h 3.5 mph /  5.6 km/h 92 % 0.00 in /  0 mm
05:10 75.3 °F /  24.1 °C 72.5 °F /  22.5 °C 29.86 in /  1011.1 hPa SSE 0.1 mph /  0.2 km/h 2.3 mph /  3.7 km/h 91 % 0.00 in /  0 mm
05:16 75.4 °F /  24.1 °C 72.6 °F /  22.6 °C 29.86 in /  1011.1 hPa SE 1.0 mph /  1.6 km/h 6.0 mph /  9.7 km/h 91 % 0.00 in /  0 mm
05:21 75.4 °F /  24.1 °C 72.6 °F /  22.6 °C 29.85 in /  1010.7 hPa Calm   1.2 mph /  1.9 km/h 91 % 0.00 in /  0 mm
05:26 75.4 °F /  24.1 °C 72.6 °F /  22.6 °C 29.85 in /  1010.7 hPa SSE 0.2 mph /  0.3 km/h 1.2 mph /  1.9 km/h 91 % 0.00 in /  0 mm
05:31 75.5 °F /  24.2 °C 72.7 °F /  22.6 °C 29.85 in /  1010.7 hPa SSE 1.0 mph /  1.6 km/h 4.0 mph /  6.4 km/h 91 % 0.00 in /  0 mm
05:36 75.5 °F /  24.2 °C 72.7 °F /  22.6 °C 29.85 in /  1010.7 hPa SSE 1.6 mph /  2.6 km/h 3.5 mph /  5.6 km/h 91 % 0.00 in /  0 mm
05:41 75.4 °F /  24.1 °C 72.6 °F /  22.6 °C 29.85 in /  1010.7 hPa SE 1.0 mph /  1.6 km/h 3.5 mph /  5.6 km/h 91 % 0.00 in /  0 mm
05:46 75.4 °F /  24.1 °C 72.6 °F /  22.6 °C 29.85 in /  1010.7 hPa SE 1.0 mph /  1.6 km/h 5.0 mph /  8 km/h 91 % 0.00 in /  0 mm
05:51 75.4 °F /  24.1 °C 72.6 °F /  22.6 °C 29.85 in /  1010.7 hPa SE 5.0 mph /  8 km/h 9.0 mph /  14.5 km/h 91 % 0.00 in /  0 mm
05:56 75.4 °F /  24.1 °C 72.6 °F /  22.6 °C 29.85 in /  1010.7 hPa SE 2.0 mph /  3.2 km/h 8.0 mph /  12.9 km/h 91 % 0.00 in /  0 mm
06:01 75.4 °F /  24.1 °C 72.6 °F /  22.6 °C 29.85 in /  1010.7 hPa SE 1.0 mph /  1.6 km/h 5.8 mph /  9.3 km/h 91 % 0.00 in /  0 mm
06:06 75.4 °F /  24.1 °C 72.3 °F /  22.4 °C 29.85 in /  1010.7 hPa SSE 1.0 mph /  1.6 km/h 6.0 mph /  9.7 km/h 90 % 0.00 in /  0 mm
06:11 75.3 °F /  24.1 °C 72.5 °F /  22.5 °C 29.85 in /  1010.7 hPa SE 2.0 mph /  3.2 km/h 7.0 mph /  11.3 km/h 91 % 0.00 in /  0 mm
06:16 75.3 °F /  24.1 °C 72.2 °F /  22.3 °C 29.85 in /  1010.7 hPa SE 2.0 mph /  3.2 km/h 6.0 mph /  9.7 km/h 90 % 0.00 in /  0 mm
06:21 75.3 °F /  24.1 °C 72.2 °F /  22.3 °C 29.85 in /  1010.7 hPa Calm   5.0 mph /  8 km/h 90 % 0.00 in /  0 mm
06:26 75.3 °F /  24.1 °C 72.2 °F /  22.3 °C 29.85 in /  1010.7 hPa SE 1.0 mph /  1.6 km/h 5.0 mph /  8 km/h 90 % 0.00 in /  0 mm
06:31 75.3 °F /  24.1 °C 72.2 °F /  22.3 °C 29.85 in /  1010.7 hPa SE 1.0 mph /  1.6 km/h 7.0 mph /  11.3 km/h 90 % 0.00 in /  0 mm
06:36 75.3 °F /  24.1 °C 72.2 °F /  22.3 °C 29.85 in /  1010.7 hPa Calm   4.0 mph /  6.4 km/h 90 % 0.00 in /  0 mm
06:41 75.2 °F /  24 °C 72.1 °F /  22.3 °C 29.85 in /  1010.7 hPa Calm   6.0 mph /  9.7 km/h 90 % 0.00 in /  0 mm
06:46 75.3 °F /  24.1 °C 72.1 °F /  22.3 °C 29.85 in /  1010.7 hPa Calm   6.0 mph /  9.7 km/h 90 % 0.00 in /  0 mm
06:51 75.3 °F /  24.1 °C 72.2 °F /  22.3 °C 29.85 in /  1010.7 hPa SSE 1.0 mph /  1.6 km/h 5.0 mph /  8 km/h 90 % 0.00 in /  0 mm
06:56 75.3 °F /  24.1 °C 72.2 °F /  22.3 °C 29.86 in /  1011.1 hPa SSE 1.0 mph /  1.6 km/h 5.0 mph /  8 km/h 90 % 0.00 in /  0 mm
07:01 75.3 °F /  24.1 °C 72.2 °F /  22.3 °C 29.85 in /  1010.7 hPa SE 0.4 mph /  0.6 km/h 1.2 mph /  1.9 km/h 90 % 0.00 in /  0 mm
07:06 75.3 °F /  24.1 °C 72.2 °F /  22.3 °C 29.85 in /  1010.7 hPa SE 0.7 mph /  1.1 km/h 9.2 mph /  14.8 km/h 90 % 0.00 in /  0 mm
07:11 75.3 °F /  24.1 °C 72.2 °F /  22.3 °C 29.85 in /  1010.7 hPa South 2.0 mph /  3.2 km/h 4.0 mph /  6.4 km/h 90 % 0.00 in /  0 mm
07:16 75.4 °F /  24.1 °C 72.3 °F /  22.4 °C 29.85 in /  1010.7 hPa SE 0.2 mph /  0.3 km/h 1.2 mph /  1.9 km/h 90 % 0.00 in /  0 mm
07:21 75.5 °F /  24.2 °C 72.4 °F /  22.4 °C 29.85 in /  1010.7 hPa SSE 2.0 mph /  3.2 km/h 5.0 mph /  8 km/h 90 % 0.00 in /  0 mm
07:26 75.6 °F /  24.2 °C 72.5 °F /  22.5 °C 29.85 in /  1010.7 hPa SSE 3.0 mph /  4.8 km/h 4.6 mph /  7.4 km/h 90 % 0.00 in /  0 mm
07:31 75.7 °F /  24.3 °C 72.6 °F /  22.6 °C 29.84 in /  1010.4 hPa SSE 1.4 mph /  2.3 km/h 3.5 mph /  5.6 km/h 90 % 0.00 in /  0 mm
07:36 75.8 °F /  24.3 °C 72.3 °F /  22.4 °C 29.84 in /  1010.4 hPa Calm   1.2 mph /  1.9 km/h 89 % 0.00 in /  0 mm
07:41 75.9 °F /  24.4 °C 72.4 °F /  22.4 °C 29.84 in /  1010.4 hPa SSE 1.5 mph /  2.4 km/h 3.5 mph /  5.6 km/h 89 % 0.00 in /  0 mm
07:46 76.0 °F /  24.4 °C 72.5 °F /  22.5 °C 29.84 in /  1010.4 hPa SE 2.5 mph /  4 km/h 5.8 mph /  9.3 km/h 89 % 0.00 in /  0 mm
07:51 76.1 °F /  24.5 °C 72.6 °F /  22.6 °C 29.84 in /  1010.4 hPa South 2.3 mph /  3.7 km/h 4.6 mph /  7.4 km/h 89 % 0.00 in /  0 mm
07:56 76.1 °F /  24.5 °C 72.6 °F /  22.6 °C 29.84 in /  1010.4 hPa SSE 0.1 mph /  0.2 km/h 2.3 mph /  3.7 km/h 89 % 0.00 in /  0 mm
08:01 76.1 °F /  24.5 °C 73.0 °F /  22.8 °C 29.84 in /  1010.4 hPa ESE 1.0 mph /  1.6 km/h 5.0 mph /  8 km/h 90 % 0.00 in /  0 mm
08:06 76.1 °F /  24.5 °C 73.0 °F /  22.8 °C 29.84 in /  1010.4 hPa SSE 2.1 mph /  3.4 km/h 5.8 mph /  9.3 km/h 90 % 0.00 in /  0 mm
08:07 76.1 °F /  24.5 °C 73.0 °F /  22.8 °C 29.84 in /  1010.4 hPa SSE 1.7 mph /  2.7 km/h 5.8 mph /  9.3 km/h 90 % 0.00 in /  0 mm
08:12 76.1 °F /  24.5 °C 73.0 °F /  22.8 °C 29.84 in /  1010.4 hPa South 1.4 mph /  2.3 km/h 4.6 mph /  7.4 km/h 90 % 0.00 in /  0 mm
08:17 76.2 °F /  24.6 °C 73.1 °F /  22.8 °C 29.84 in /  1010.4 hPa Calm   2.3 mph /  3.7 km/h 90 % 0.00 in /  0 mm
08:22 76.3 °F /  24.6 °C 73.5 °F /  23.1 °C 29.83 in /  1010 hPa SE 0.2 mph /  0.3 km/h 3.5 mph /  5.6 km/h 91 % 0.00 in /  0 mm
08:27 76.4 °F /  24.7 °C 73.2 °F /  22.9 °C 29.84 in /  1010.4 hPa SE 0.5 mph /  0.8 km/h 2.3 mph /  3.7 km/h 90 % 0.00 in /  0 mm
08:32 76.4 °F /  24.7 °C 73.6 °F /  23.1 °C 29.84 in /  1010.4 hPa SSW 1.6 mph /  2.6 km/h 6.0 mph /  9.7 km/h 91 % 0.00 in /  0 mm
08:37 76.4 °F /  24.7 °C 73.6 °F /  23.1 °C 29.84 in /  1010.4 hPa WSW 0.8 mph /  1.3 km/h 3.5 mph /  5.6 km/h 91 % 0.00 in /  0 mm
08:42 76.4 °F /  24.7 °C 73.6 °F /  23.1 °C 29.84 in /  1010.4 hPa SSE 2.2 mph /  3.5 km/h 4.6 mph /  7.4 km/h 91 % 0.02 in /  0.51 mm
08:47 76.3 °F /  24.6 °C 73.8 °F /  23.2 °C 29.84 in /  1010.4 hPa WSW 0.4 mph /  0.6 km/h   92 % 0.03 in /  0.76 mm
08:52 76.2 °F /  24.6 °C 73.7 °F /  23.2 °C 29.84 in /  1010.4 hPa Calm   2.3 mph /  3.7 km/h 92 % 0.04 in /  1.02 mm
08:57 76.2 °F /  24.6 °C 73.7 °F /  23.2 °C 29.83 in /  1010 hPa Calm   1.2 mph /  1.9 km/h 92 % 0.08 in /  2.03 mm
09:02 76.1 °F /  24.5 °C 73.6 °F /  23.1 °C 29.83 in /  1010 hPa Calm   2.3 mph /  3.7 km/h 92 % 0.11 in /  2.79 mm
09:07 76.0 °F /  24.4 °C 73.5 °F /  23.1 °C 29.84 in /  1010.4 hPa Calm   1.2 mph /  1.9 km/h 92 % 0.13 in /  3.3 mm
09:12 76.0 °F /  24.4 °C 73.5 °F /  23.1 °C 29.84 in /  1010.4 hPa Calm     92 % 0.18 in /  4.57 mm
09:17 75.9 °F /  24.4 °C 73.4 °F /  23 °C 29.84 in /  1010.4 hPa Calm   1.2 mph /  1.9 km/h 92 % 0.26 in /  6.6 mm
09:22 75.9 °F /  24.4 °C 73.7 °F /  23.2 °C 29.85 in /  1010.7 hPa Calm     93 % 0.30 in /  7.62 mm
09:27 75.8 °F /  24.3 °C 73.6 °F /  23.1 °C 29.83 in /  1010 hPa SE 1.0 mph /  1.6 km/h 3.5 mph /  5.6 km/h 93 % 0.35 in /  8.89 mm
09:32 75.6 °F /  24.2 °C 73.8 °F /  23.2 °C 29.83 in /  1010 hPa ESE 0.7 mph /  1.1 km/h 2.3 mph /  3.7 km/h 94 % 0.98 in /  24.89 mm
09:37 75.5 °F /  24.2 °C 73.7 °F /  23.2 °C 29.83 in /  1010 hPa Calm     94 % 1.17 in /  29.72 mm
09:42 75.4 °F /  24.1 °C 73.6 °F /  23.1 °C 29.83 in /  1010 hPa SE 1.1 mph /  1.8 km/h 3.5 mph /  5.6 km/h 94 % 1.27 in /  32.26 mm
09:43 75.4 °F /  24.1 °C 73.6 °F /  23.1 °C 29.83 in /  1010 hPa SE 0.5 mph /  0.8 km/h 3.5 mph /  5.6 km/h 94 % 1.27 in /  32.26 mm
09:48 75.4 °F /  24.1 °C 73.6 °F /  23.1 °C 29.83 in /  1010 hPa South 1.0 mph /  1.6 km/h 3.5 mph /  5.6 km/h 94 % 1.32 in /  33.53 mm
09:53 75.4 °F /  24.1 °C 73.9 °F /  23.3 °C 29.83 in /  1010 hPa SSE 0.2 mph /  0.3 km/h 2.3 mph /  3.7 km/h 95 % 1.36 in /  34.54 mm
09:58 75.3 °F /  24.1 °C 73.8 °F /  23.2 °C 29.83 in /  1010 hPa SE 2.2 mph /  3.5 km/h 4.6 mph /  7.4 km/h 95 % 1.40 in /  35.56 mm
10:03 75.3 °F /  24.1 °C 73.8 °F /  23.2 °C 29.83 in /  1010 hPa SE 0.6 mph /  1 km/h 2.3 mph /  3.7 km/h 95 % 1.41 in /  35.81 mm
10:08 75.3 °F /  24.1 °C 73.8 °F /  23.2 °C 29.83 in /  1010 hPa SE 2.6 mph /  4.2 km/h 6.9 mph /  11.1 km/h 95 % 1.43 in /  36.32 mm
10:13 75.3 °F /  24.1 °C 74.1 °F /  23.4 °C 29.83 in /  1010 hPa SE 1.0 mph /  1.6 km/h 3.5 mph /  5.6 km/h 96 % 1.39 in /  35.31 mm
10:18 75.2 °F /  24 °C 74.0 °F /  23.3 °C 29.83 in /  1010 hPa SE 0.1 mph /  0.2 km/h 1.2 mph /  1.9 km/h 96 % 1.31 in /  33.27 mm
10:23 75.2 °F /  24 °C 74.0 °F /  23.3 °C 29.83 in /  1010 hPa Calm   1.2 mph /  1.9 km/h 96 % 1.28 in /  32.51 mm
10:28 75.2 °F /  24 °C 74.0 °F /  23.3 °C 29.83 in /  1010 hPa SE 0.7 mph /  1.1 km/h 1.2 mph /  1.9 km/h 96 % 1.04 in /  26.42 mm
10:33 75.3 °F /  24.1 °C 74.1 °F /  23.4 °C 29.83 in /  1010 hPa Calm     96 % 0.55 in /  13.97 mm
10:39 75.4 °F /  24.1 °C 74.2 °F /  23.4 °C 29.83 in /  1010 hPa Calm   1.2 mph /  1.9 km/h 96 % 0.39 in /  9.91 mm
10:44 75.5 °F /  24.2 °C 74.3 °F /  23.5 °C 29.83 in /  1010 hPa Calm     96 % 0.29 in /  7.37 mm
10:49 75.6 °F /  24.2 °C 74.4 °F /  23.6 °C 29.82 in /  1009.7 hPa SSE 0.1 mph /  0.2 km/h 1.2 mph /  1.9 km/h 96 % 0.22 in /  5.59 mm
10:54 75.8 °F /  24.3 °C 74.9 °F /  23.8 °C 29.83 in /  1010 hPa SSE 0.7 mph /  1.1 km/h 2.3 mph /  3.7 km/h 97 % 0.19 in /  4.83 mm
10:59 75.9 °F /  24.4 °C 75.0 °F /  23.9 °C 29.83 in /  1010 hPa SW 1.0 mph /  1.6 km/h 4.6 mph /  7.4 km/h 97 % 0.10 in /  2.54 mm
11:04 76.1 °F /  24.5 °C 75.2 °F /  24 °C 29.83 in /  1010 hPa SSW 0.6 mph /  1 km/h 2.3 mph /  3.7 km/h 97 % 0.06 in /  1.52 mm
11:09 76.2 °F /  24.6 °C 75.3 °F /  24.1 °C 29.83 in /  1010 hPa SSW 0.1 mph /  0.2 km/h 1.2 mph /  1.9 km/h 97 % 0.02 in /  0.51 mm
11:14 76.3 °F /  24.6 °C 75.4 °F /  24.1 °C 29.82 in /  1009.7 hPa SSW 0.1 mph /  0.2 km/h 2.3 mph /  3.7 km/h 97 % 0.02 in /  0.51 mm
11:19 76.6 °F /  24.8 °C 75.7 °F /  24.3 °C 29.82 in /  1009.7 hPa West 0.4 mph /  0.6 km/h 2.3 mph /  3.7 km/h 97 % 0.02 in /  0.51 mm
11:24 76.9 °F /  24.9 °C 76.0 °F /  24.4 °C 29.82 in /  1009.7 hPa West 0.2 mph /  0.3 km/h 2.3 mph /  3.7 km/h 97 % 0.01 in /  0.25 mm
11:29 77.1 °F /  25.1 °C 76.2 °F /  24.6 °C 29.83 in /  1010 hPa SSW 2.3 mph /  3.7 km/h 4.6 mph /  7.4 km/h 97 % 0.01 in /  0.25 mm
11:34 77.3 °F /  25.2 °C 76.4 °F /  24.7 °C 29.83 in /  1010 hPa Calm     97 % 0.01 in /  0.25 mm
11:39 77.4 °F /  25.2 °C 76.5 °F /  24.7 °C 29.82 in /  1009.7 hPa SSW 0.3 mph /  0.5 km/h 2.0 mph /  3.2 km/h 97 % 0.01 in /  0.25 mm
11:44 77.5 °F /  25.3 °C 76.6 °F /  24.8 °C 29.82 in /  1009.7 hPa SW 0.4 mph /  0.6 km/h 3.5 mph /  5.6 km/h 97 % 0.01 in /  0.25 mm
11:49 77.7 °F /  25.4 °C 76.8 °F /  24.9 °C 29.81 in /  1009.4 hPa SW 0.4 mph /  0.6 km/h 2.3 mph /  3.7 km/h 97 % 0.01 in /  0.25 mm
11:54 78.0 °F /  25.6 °C 77.1 °F /  25.1 °C 29.81 in /  1009.4 hPa SSW 1.1 mph /  1.8 km/h 3.5 mph /  5.6 km/h 97 % 0.01 in /  0.25 mm
11:59 78.0 °F /  25.6 °C 77.1 °F /  25.1 °C 29.81 in /  1009.4 hPa SW 0.4 mph /  0.6 km/h 2.3 mph /  3.7 km/h 97 % 0.01 in /  0.25 mm
12:04 78.1 °F /  25.6 °C 77.2 °F /  25.1 °C 29.81 in /  1009.4 hPa West 0.4 mph /  0.6 km/h 3.0 mph /  4.8 km/h 97 % 0.01 in /  0.25 mm
12:09 78.5 °F /  25.8 °C 77.6 °F /  25.3 °C 29.81 in /  1009.4 hPa WSW 0.9 mph /  1.4 km/h 2.0 mph /  3.2 km/h 97 % 0.01 in /  0.25 mm
12:14 79.3 °F /  26.3 °C 78.7 °F /  25.9 °C 29.80 in /  1009 hPa SW 0.4 mph /  0.6 km/h 1.2 mph /  1.9 km/h 98 % 0.00 in /  0 mm
12:19 79.6 °F /  26.4 °C 79.0 °F /  26.1 °C 29.80 in /  1009 hPa SSW 0.7 mph /  1.1 km/h 3.5 mph /  5.6 km/h 98 % 0.00 in /  0 mm
12:25 79.5 °F /  26.4 °C 78.6 °F /  25.9 °C 29.80 in /  1009 hPa WSW 3.3 mph /  5.3 km/h 6.9 mph /  11.1 km/h 97 % 0.00 in /  0 mm
12:30 79.6 °F /  26.4 °C 78.7 °F /  25.9 °C 29.80 in /  1009 hPa South 1.4 mph /  2.3 km/h 3.5 mph /  5.6 km/h 97 % 0.00 in /  0 mm
12:35 79.5 °F /  26.4 °C 78.6 °F /  25.9 °C 29.80 in /  1009 hPa South 0.6 mph /  1 km/h 1.2 mph /  1.9 km/h 97 % 0.00 in /  0 mm
12:40 79.4 °F /  26.3 °C 78.5 °F /  25.8 °C 29.80 in /  1009 hPa SSW 0.7 mph /  1.1 km/h 4.6 mph /  7.4 km/h 97 % 0.00 in /  0 mm
12:45 79.5 °F /  26.4 °C 78.6 °F /  25.9 °C 29.80 in /  1009 hPa SW 1.1 mph /  1.8 km/h 3.5 mph /  5.6 km/h 97 % 0.00 in /  0 mm
12:50 79.7 °F /  26.5 °C 78.8 °F /  26 °C 29.80 in /  1009 hPa SW 2.9 mph /  4.7 km/h 3.5 mph /  5.6 km/h 97 % 0.00 in /  0 mm
12:55 79.8 °F /  26.6 °C 78.9 °F /  26.1 °C 29.80 in /  1009 hPa SSE 0.4 mph /  0.6 km/h 2.0 mph /  3.2 km/h 97 % 0.00 in /  0 mm
13:00 79.8 °F /  26.6 °C 78.6 °F /  25.9 °C 29.80 in /  1009 hPa SW 1.3 mph /  2.1 km/h 4.6 mph /  7.4 km/h 96 % 0.00 in /  0 mm
13:05 79.9 °F /  26.6 °C 78.7 °F /  25.9 °C 29.79 in /  1008.7 hPa SW 4.0 mph /  6.4 km/h 10.4 mph /  16.7 km/h 96 % 0.00 in /  0 mm
13:10 80.1 °F /  26.7 °C 78.9 °F /  26.1 °C 29.79 in /  1008.7 hPa South 2.3 mph /  3.7 km/h 4.6 mph /  7.4 km/h 96 % 0.00 in /  0 mm
13:15 80.1 °F /  26.7 °C 78.5 °F /  25.8 °C 29.79 in /  1008.7 hPa SSW 0.7 mph /  1.1 km/h 3.5 mph /  5.6 km/h 95 % 0.00 in /  0 mm
13:20 80.5 °F /  26.9 °C 78.9 °F /  26.1 °C 29.79 in /  1008.7 hPa WSW 1.8 mph /  2.9 km/h 3.5 mph /  5.6 km/h 95 % 0.00 in /  0 mm
13:25 80.9 °F /  27.2 °C 79.0 °F /  26.1 °C 29.79 in /  1008.7 hPa ESE 1.7 mph /  2.7 km/h 3.5 mph /  5.6 km/h 94 % 0.00 in /  0 mm
13:30 81.1 °F /  27.3 °C 78.9 °F /  26.1 °C 29.79 in /  1008.7 hPa WSW 2.4 mph /  3.9 km/h 6.9 mph /  11.1 km/h 93 % 0.00 in /  0 mm
13:35 81.3 °F /  27.4 °C 79.1 °F /  26.2 °C 29.79 in /  1008.7 hPa SSW 2.9 mph /  4.7 km/h 5.8 mph /  9.3 km/h 93 % 0.00 in /  0 mm
13:40 81.4 °F /  27.4 °C 78.5 °F /  25.8 °C 29.79 in /  1008.7 hPa WSW 3.4 mph /  5.5 km/h 6.0 mph /  9.7 km/h 91 % 0.00 in /  0 mm
13:45 81.5 °F /  27.5 °C 78.6 °F /  25.9 °C 29.78 in /  1008.4 hPa SSW 0.7 mph /  1.1 km/h 3.5 mph /  5.6 km/h 91 % 0.00 in /  0 mm
13:50 81.4 °F /  27.4 °C 78.2 °F /  25.7 °C 29.78 in /  1008.4 hPa SSW 0.6 mph /  1 km/h 3.5 mph /  5.6 km/h 90 % 0.00 in /  0 mm
13:55 81.2 °F /  27.3 °C 77.6 °F /  25.3 °C 29.78 in /  1008.4 hPa SSE 0.8 mph /  1.3 km/h 5.8 mph /  9.3 km/h 89 % 0.00 in /  0 mm
14:00 81.2 °F /  27.3 °C 78.0 °F /  25.6 °C 29.78 in /  1008.4 hPa SSW 1.4 mph /  2.3 km/h 3.5 mph /  5.6 km/h 90 % 0.00 in /  0 mm
14:05 81.1 °F /  27.3 °C 77.9 °F /  25.5 °C 29.78 in /  1008.4 hPa SW 1.5 mph /  2.4 km/h 4.6 mph /  7.4 km/h 90 % 0.00 in /  0 mm
14:10 81.1 °F /  27.3 °C 77.9 °F /  25.5 °C 29.78 in /  1008.4 hPa SW 3.4 mph /  5.5 km/h 9.0 mph /  14.5 km/h 90 % 0.00 in /  0 mm
14:15 81.0 °F /  27.2 °C 77.8 °F /  25.4 °C 29.77 in /  1008 hPa SSW 1.6 mph /  2.6 km/h 4.6 mph /  7.4 km/h 90 % 0.00 in /  0 mm
14:20 81.2 °F /  27.3 °C 78.3 °F /  25.7 °C 29.78 in /  1008.4 hPa SSW 0.1 mph /  0.2 km/h 4.6 mph /  7.4 km/h 91 % 0.00 in /  0 mm
14:25 81.1 °F /  27.3 °C 77.9 °F /  25.5 °C 29.77 in /  1008 hPa SW 0.4 mph /  0.6 km/h 3.5 mph /  5.6 km/h 90 % 0.00 in /  0 mm
14:31 81.1 °F /  27.3 °C 77.9 °F /  25.5 °C 29.77 in /  1008 hPa SW 2.0 mph /  3.2 km/h 6.0 mph /  9.7 km/h 90 % 0.00 in /  0 mm
14:36 81.0 °F /  27.2 °C 77.4 °F /  25.2 °C 29.77 in /  1008 hPa SSW 5.0 mph /  8 km/h 8.0 mph /  12.9 km/h 89 % 0.00 in /  0 mm
14:41 80.9 °F /  27.2 °C 77.4 °F /  25.2 °C 29.77 in /  1008 hPa SSW 2.0 mph /  3.2 km/h 8.0 mph /  12.9 km/h 89 % 0.00 in /  0 mm
14:46 80.9 °F /  27.2 °C 77.4 °F /  25.2 °C 29.77 in /  1008 hPa SSW 1.0 mph /  1.6 km/h 8.0 mph /  12.9 km/h 89 % 0.00 in /  0 mm
14:51 81.0 °F /  27.2 °C 77.8 °F /  25.4 °C 29.76 in /  1007.7 hPa SW 2.0 mph /  3.2 km/h 5.0 mph /  8 km/h 90 % 0.00 in /  0 mm
14:56 81.0 °F /  27.2 °C 77.8 °F /  25.4 °C 29.76 in /  1007.7 hPa SW 3.0 mph /  4.8 km/h 7.0 mph /  11.3 km/h 90 % 0.00 in /  0 mm
15:01 81.1 °F /  27.3 °C 77.9 °F /  25.5 °C 29.76 in /  1007.7 hPa SSW 2.1 mph /  3.4 km/h 5.8 mph /  9.3 km/h 90 % 0.00 in /  0 mm
15:06 81.1 °F /  27.3 °C 77.9 °F /  25.5 °C 29.76 in /  1007.7 hPa SW 5.0 mph /  8 km/h 9.0 mph /  14.5 km/h 90 % 0.00 in /  0 mm
15:11 81.2 °F /  27.3 °C 78.0 °F /  25.6 °C 29.76 in /  1007.7 hPa Calm   3.0 mph /  4.8 km/h 90 % 0.00 in /  0 mm
15:16 81.5 °F /  27.5 °C 78.6 °F /  25.9 °C 29.76 in /  1007.7 hPa South 1.0 mph /  1.6 km/h 4.0 mph /  6.4 km/h 91 % 0.00 in /  0 mm
15:21 81.9 °F /  27.7 °C 79.0 °F /  26.1 °C 29.75 in /  1007.3 hPa SSW 3.0 mph /  4.8 km/h 12.0 mph /  19.3 km/h 91 % 0.00 in /  0 mm
15:26 82.3 °F /  27.9 °C 78.7 °F /  25.9 °C 29.75 in /  1007.3 hPa SSW 2.4 mph /  3.9 km/h 4.0 mph /  6.4 km/h 89 % 0.00 in /  0 mm
15:31 82.5 °F /  28.1 °C 78.2 °F /  25.7 °C 29.75 in /  1007.3 hPa South 1.0 mph /  1.6 km/h 7.0 mph /  11.3 km/h 87 % 0.00 in /  0 mm
15:36 82.7 °F /  28.2 °C 78.1 °F /  25.6 °C 29.75 in /  1007.3 hPa South 1.0 mph /  1.6 km/h 12.0 mph /  19.3 km/h 86 % 0.00 in /  0 mm
15:41 83.0 °F /  28.3 °C 78.7 °F /  25.9 °C 29.75 in /  1007.3 hPa SSW 2.0 mph /  3.2 km/h 6.0 mph /  9.7 km/h 87 % 0.00 in /  0 mm
15:46 83.3 °F /  28.5 °C 78.7 °F /  25.9 °C 29.74 in /  1007 hPa SSW 3.0 mph /  4.8 km/h 7.0 mph /  11.3 km/h 86 % 0.00 in /  0 mm
15:51 83.5 °F /  28.6 °C 78.5 °F /  25.8 °C 29.74 in /  1007 hPa South 2.0 mph /  3.2 km/h 5.0 mph /  8 km/h 85 % 0.00 in /  0 mm
15:56 83.8 °F /  28.8 °C 78.8 °F /  26 °C 29.74 in /  1007 hPa SSW 6.0 mph /  9.7 km/h 12.0 mph /  19.3 km/h 85 % 0.00 in /  0 mm
16:01 84.1 °F /  28.9 °C 78.7 °F /  25.9 °C 29.74 in /  1007 hPa SSW 1.8 mph /  2.9 km/h 5.0 mph /  8 km/h 84 % 0.00 in /  0 mm
16:06 84.2 °F /  29 °C 78.5 °F /  25.8 °C 29.74 in /  1007 hPa SSW 4.6 mph /  7.4 km/h 9.0 mph /  14.5 km/h 83 % 0.00 in /  0 mm
16:11 84.1 °F /  28.9 °C 78.0 °F /  25.6 °C 29.74 in /  1007 hPa SSE 1.3 mph /  2.1 km/h 3.5 mph /  5.6 km/h 82 % 0.00 in /  0 mm
16:16 84.0 °F /  28.9 °C 78.3 °F /  25.7 °C 29.74 in /  1007 hPa WSW 2.3 mph /  3.7 km/h 5.8 mph /  9.3 km/h 83 % 0.00 in /  0 mm
16:21 83.9 °F /  28.8 °C 78.2 °F /  25.7 °C 29.73 in /  1006.7 hPa South 0.3 mph /  0.5 km/h 2.3 mph /  3.7 km/h 83 % 0.00 in /  0 mm
16:26 83.6 °F /  28.7 °C 77.9 °F /  25.5 °C 29.73 in /  1006.7 hPa SE 0.7 mph /  1.1 km/h 3.5 mph /  5.6 km/h 83 % 0.00 in /  0 mm
16:31 83.1 °F /  28.4 °C 77.8 °F /  25.4 °C 29.73 in /  1006.7 hPa South 0.8 mph /  1.3 km/h 3.5 mph /  5.6 km/h 84 % 0.00 in /  0 mm
16:36 82.7 °F /  28.2 °C 77.7 °F /  25.4 °C 29.73 in /  1006.7 hPa SW 1.9 mph /  3.1 km/h 3.5 mph /  5.6 km/h 85 % 0.00 in /  0 mm
16:41 82.4 °F /  28 °C 77.4 °F /  25.2 °C 29.73 in /  1006.7 hPa SSE 1.9 mph /  3.1 km/h 3.5 mph /  5.6 km/h 85 % 0.00 in /  0 mm
16:46 82.1 °F /  27.8 °C 77.5 °F /  25.3 °C 29.74 in /  1007 hPa SSW 0.8 mph /  1.3 km/h 4.0 mph /  6.4 km/h 86 % 0.00 in /  0 mm
16:51 81.8 °F /  27.7 °C 77.2 °F /  25.1 °C 29.73 in /  1006.7 hPa ESE 0.9 mph /  1.4 km/h 3.5 mph /  5.6 km/h 86 % 0.00 in /  0 mm
16:56 81.4 °F /  27.4 °C 77.2 °F /  25.1 °C 29.73 in /  1006.7 hPa SSE 2.2 mph /  3.5 km/h 4.0 mph /  6.4 km/h 87 % 0.00 in /  0 mm
17:01 81.0 °F /  27.2 °C 77.1 °F /  25.1 °C 29.73 in /  1006.7 hPa SE 0.4 mph /  0.6 km/h 2.3 mph /  3.7 km/h 88 % 0.00 in /  0 mm
17:06 80.8 °F /  27.1 °C 76.9 °F /  24.9 °C 29.74 in /  1007 hPa SW 2.1 mph /  3.4 km/h 4.6 mph /  7.4 km/h 88 % 0.00 in /  0 mm
17:11 80.7 °F /  27.1 °C 77.2 °F /  25.1 °C 29.73 in /  1006.7 hPa SSW 1.0 mph /  1.6 km/h 2.3 mph /  3.7 km/h 89 % 0.00 in /  0 mm
17:16 80.5 °F /  26.9 °C 77.0 °F /  25 °C 29.73 in /  1006.7 hPa South 2.3 mph /  3.7 km/h 4.6 mph /  7.4 km/h 89 % 0.00 in /  0 mm
17:21 80.3 °F /  26.8 °C 76.8 °F /  24.9 °C 29.73 in /  1006.7 hPa WSW 0.4 mph /  0.6 km/h 2.3 mph /  3.7 km/h 89 % 0.00 in /  0 mm
17:26 80.1 °F /  26.7 °C 76.6 °F /  24.8 °C 29.72 in /  1006.3 hPa South 2.6 mph /  4.2 km/h 3.5 mph /  5.6 km/h 89 % 0.00 in /  0 mm
17:31 80.0 °F /  26.7 °C 76.8 °F /  24.9 °C 29.73 in /  1006.7 hPa South 0.4 mph /  0.6 km/h 3.5 mph /  5.6 km/h 90 % 0.00 in /  0 mm
17:36 79.8 °F /  26.6 °C 76.6 °F /  24.8 °C 29.73 in /  1006.7 hPa South 1.0 mph /  1.6 km/h 3.5 mph /  5.6 km/h 90 % 0.00 in /  0 mm
17:41 79.7 °F /  26.5 °C 76.5 °F /  24.7 °C 29.73 in /  1006.7 hPa SSE 0.3 mph /  0.5 km/h 3.5 mph /  5.6 km/h 90 % 0.00 in /  0 mm
17:46 79.6 °F /  26.4 °C 76.7 °F /  24.8 °C 29.74 in /  1007 hPa SW 2.5 mph /  4 km/h 4.6 mph /  7.4 km/h 91 % 0.00 in /  0 mm
17:51 79.6 °F /  26.4 °C 76.7 °F /  24.8 °C 29.75 in /  1007.3 hPa ESE 1.0 mph /  1.6 km/h 3.5 mph /  5.6 km/h 91 % 0.00 in /  0 mm
17:56 79.5 °F /  26.4 °C 76.6 °F /  24.8 °C 29.74 in /  1007 hPa WSW 0.3 mph /  0.5 km/h 3.5 mph /  5.6 km/h 91 % 0.00 in /  0 mm
18:01 79.4 °F /  26.3 °C 76.5 °F /  24.7 °C 29.74 in /  1007 hPa South 0.4 mph /  0.6 km/h 3.5 mph /  5.6 km/h 91 % 0.00 in /  0 mm
18:07 79.3 °F /  26.3 °C 76.4 °F /  24.7 °C 29.75 in /  1007.3 hPa SW 1.9 mph /  3.1 km/h 3.5 mph /  5.6 km/h 91 % 0.00 in /  0 mm
18:12 79.3 °F /  26.3 °C 76.4 °F /  24.7 °C 29.75 in /  1007.3 hPa South 1.2 mph /  1.9 km/h 3.5 mph /  5.6 km/h 91 % 0.00 in /  0 mm
18:17 79.2 °F /  26.2 °C 76.7 °F /  24.8 °C 29.75 in /  1007.3 hPa South 1.2 mph /  1.9 km/h 3.5 mph /  5.6 km/h 92 % 0.00 in /  0 mm
18:22 79.2 °F /  26.2 °C 76.7 °F /  24.8 °C 29.75 in /  1007.3 hPa SSW 3.6 mph /  5.8 km/h 5.0 mph /  8 km/h 92 % 0.00 in /  0 mm
18:27 79.1 °F /  26.2 °C 76.6 °F /  24.8 °C 29.75 in /  1007.3 hPa South 5.7 mph /  9.2 km/h 9.2 mph /  14.8 km/h 92 % 0.00 in /  0 mm
18:32 79.0 °F /  26.1 °C 76.5 °F /  24.7 °C 29.76 in /  1007.7 hPa SSW 0.8 mph /  1.3 km/h 2.3 mph /  3.7 km/h 92 % 0.00 in /  0 mm
18:37 79.0 °F /  26.1 °C 76.5 °F /  24.7 °C 29.76 in /  1007.7 hPa SSE 0.5 mph /  0.8 km/h 2.3 mph /  3.7 km/h 92 % 0.00 in /  0 mm
18:42 78.9 °F /  26.1 °C 76.4 °F /  24.7 °C 29.76 in /  1007.7 hPa SE 0.9 mph /  1.4 km/h 3.5 mph /  5.6 km/h 92 % 0.00 in /  0 mm
18:47 78.8 °F /  26 °C 76.3 °F /  24.6 °C 29.75 in /  1007.3 hPa SSW 0.2 mph /  0.3 km/h 2.3 mph /  3.7 km/h 92 % 0.00 in /  0 mm
18:48 78.8 °F /  26 °C 76.3 °F /  24.6 °C 29.75 in /  1007.3 hPa SW 3.6 mph /  5.8 km/h 6.9 mph /  11.1 km/h 92 % 0.00 in /  0 mm
18:53 78.8 °F /  26 °C 76.6 °F /  24.8 °C 29.75 in /  1007.3 hPa SW 0.5 mph /  0.8 km/h 2.0 mph /  3.2 km/h 93 % 0.00 in /  0 mm
18:58 78.7 °F /  25.9 °C 76.5 °F /  24.7 °C 29.75 in /  1007.3 hPa SSE 0.5 mph /  0.8 km/h 2.3 mph /  3.7 km/h 93 % 0.00 in /  0 mm
19:03 78.7 °F /  25.9 °C 76.5 °F /  24.7 °C 29.75 in /  1007.3 hPa SW 1.7 mph /  2.7 km/h 3.0 mph /  4.8 km/h 93 % 0.00 in /  0 mm
19:08 78.7 °F /  25.9 °C 76.5 °F /  24.7 °C 29.75 in /  1007.3 hPa SE 0.3 mph /  0.5 km/h 3.5 mph /  5.6 km/h 93 % 0.00 in /  0 mm
19:09 78.7 °F /  25.9 °C 76.5 °F /  24.7 °C 29.75 in /  1007.3 hPa SE 0.6 mph /  1 km/h 2.3 mph /  3.7 km/h 93 % 0.00 in /  0 mm
19:14 78.6 °F /  25.9 °C 76.4 °F /  24.7 °C 29.75 in /  1007.3 hPa SSW 1.7 mph /  2.7 km/h 3.5 mph /  5.6 km/h 93 % 0.00 in /  0 mm
19:19 78.6 °F /  25.9 °C 76.4 °F /  24.7 °C 29.75 in /  1007.3 hPa Calm   1.2 mph /  1.9 km/h 93 % 0.00 in /  0 mm
19:24 78.6 °F /  25.9 °C 76.4 °F /  24.7 °C 29.74 in /  1007 hPa SSW 0.3 mph /  0.5 km/h 1.2 mph /  1.9 km/h 93 % 0.00 in /  0 mm
19:30 78.6 °F /  25.9 °C 76.4 °F /  24.7 °C 29.74 in /  1007 hPa South 2.3 mph /  3.7 km/h 4.6 mph /  7.4 km/h 93 % 0.00 in /  0 mm
19:35 78.5 °F /  25.8 °C 76.6 °F /  24.8 °C 29.73 in /  1006.7 hPa SSE 0.2 mph /  0.3 km/h 5.8 mph /  9.3 km/h 94 % 0.00 in /  0 mm
19:40 78.5 °F /  25.8 °C 76.6 °F /  24.8 °C 29.73 in /  1006.7 hPa SSE 0.1 mph /  0.2 km/h 2.3 mph /  3.7 km/h 94 % 0.00 in /  0 mm
19:45 78.5 °F /  25.8 °C 76.6 °F /  24.8 °C 29.73 in /  1006.7 hPa SSE 1.1 mph /  1.8 km/h 4.6 mph /  7.4 km/h 94 % 0.01 in /  0.25 mm
19:50 78.5 °F /  25.8 °C 76.6 °F /  24.8 °C 29.73 in /  1006.7 hPa SSE 1.1 mph /  1.8 km/h 3.5 mph /  5.6 km/h 94 % 0.02 in /  0.51 mm
19:55 78.4 °F /  25.8 °C 76.5 °F /  24.7 °C 29.74 in /  1007 hPa South 0.3 mph /  0.5 km/h 2.3 mph /  3.7 km/h 94 % 0.02 in /  0.51 mm
20:00 78.4 °F /  25.8 °C 76.8 °F /  24.9 °C 29.74 in /  1007 hPa South 0.2 mph /  0.3 km/h 1.2 mph /  1.9 km/h 95 % 0.03 in /  0.76 mm
20:05 78.4 °F /  25.8 °C 76.8 °F /  24.9 °C 29.74 in /  1007 hPa WNW 0.2 mph /  0.3 km/h 1.2 mph /  1.9 km/h 95 % 0.04 in /  1.02 mm
20:10 78.4 °F /  25.8 °C 76.8 °F /  24.9 °C 29.74 in /  1007 hPa SSE 1.3 mph /  2.1 km/h 3.5 mph /  5.6 km/h 95 % 0.05 in /  1.27 mm
20:15 78.3 °F /  25.7 °C 76.7 °F /  24.8 °C 29.73 in /  1006.7 hPa SSW 0.6 mph /  1 km/h 3.5 mph /  5.6 km/h 95 % 0.06 in /  1.52 mm
20:20 78.3 °F /  25.7 °C 76.7 °F /  24.8 °C 29.73 in /  1006.7 hPa WSW 0.3 mph /  0.5 km/h 2.3 mph /  3.7 km/h 95 % 0.06 in /  1.52 mm
20:25 78.2 °F /  25.7 °C 76.6 °F /  24.8 °C 29.72 in /  1006.3 hPa South 0.1 mph /  0.2 km/h 1.2 mph /  1.9 km/h 95 % 0.08 in /  2.03 mm
20:30 78.1 °F /  25.6 °C 76.6 °F /  24.8 °C 29.72 in /  1006.3 hPa SSE 0.2 mph /  0.3 km/h 1.2 mph /  1.9 km/h 95 % 0.08 in /  2.03 mm
20:35 78.0 °F /  25.6 °C 76.5 °F /  24.7 °C 29.71 in /  1006 hPa SE 0.5 mph /  0.8 km/h 3.5 mph /  5.6 km/h 95 % 0.09 in /  2.29 mm
20:40 78.0 °F /  25.6 °C 76.5 °F /  24.7 °C 29.72 in /  1006.3 hPa SW 0.5 mph /  0.8 km/h 3.5 mph /  5.6 km/h 95 % 0.09 in /  2.29 mm
20:41 78.0 °F /  25.6 °C 76.5 °F /  24.7 °C 29.72 in /  1006.3 hPa SW 0.1 mph /  0.2 km/h 2.3 mph /  3.7 km/h 95 % 0.09 in /  2.29 mm
20:46 77.9 °F /  25.5 °C 76.7 °F /  24.8 °C 29.72 in /  1006.3 hPa SW 0.2 mph /  0.3 km/h 1.2 mph /  1.9 km/h 96 % 0.08 in /  2.03 mm
20:51 77.8 °F /  25.4 °C 76.6 °F /  24.8 °C 29.72 in /  1006.3 hPa SSE 0.1 mph /  0.2 km/h 2.0 mph /  3.2 km/h 96 % 0.07 in /  1.78 mm
20:56 77.8 °F /  25.4 °C 76.6 °F /  24.8 °C 29.71 in /  1006 hPa SSE 1.2 mph /  1.9 km/h 3.5 mph /  5.6 km/h 96 % 0.06 in /  1.52 mm
21:01 77.7 °F /  25.4 °C 76.5 °F /  24.7 °C 29.71 in /  1006 hPa SSE 0.6 mph /  1 km/h 2.3 mph /  3.7 km/h 96 % 0.06 in /  1.52 mm
21:06 77.7 °F /  25.4 °C 76.5 °F /  24.7 °C 29.71 in /  1006 hPa SSE 0.2 mph /  0.3 km/h 1.2 mph /  1.9 km/h 96 % 0.05 in /  1.27 mm
21:11 77.6 °F /  25.3 °C 76.4 °F /  24.7 °C 29.72 in /  1006.3 hPa WSW 2.0 mph /  3.2 km/h 4.6 mph /  7.4 km/h 96 % 0.03 in /  0.76 mm
21:16 77.6 °F /  25.3 °C 76.4 °F /  24.7 °C 29.72 in /  1006.3 hPa South 1.7 mph /  2.7 km/h 4.0 mph /  6.4 km/h 96 % 0.03 in /  0.76 mm
21:21 77.6 °F /  25.3 °C 76.4 °F /  24.7 °C 29.72 in /  1006.3 hPa SSW 0.4 mph /  0.6 km/h 2.3 mph /  3.7 km/h 96 % 0.02 in /  0.51 mm
21:26 77.6 °F /  25.3 °C 76.4 °F /  24.7 °C 29.72 in /  1006.3 hPa SW 0.7 mph /  1.1 km/h 2.3 mph /  3.7 km/h 96 % 0.01 in /  0.25 mm
21:31 77.6 °F /  25.3 °C 76.4 °F /  24.7 °C 29.73 in /  1006.7 hPa SW 0.3 mph /  0.5 km/h 1.2 mph /  1.9 km/h 96 % 0.01 in /  0.25 mm
21:36 77.6 °F /  25.3 °C 76.4 °F /  24.7 °C 29.73 in /  1006.7 hPa South 0.1 mph /  0.2 km/h   96 % 0.00 in /  0 mm
21:37 77.6 °F /  25.3 °C 76.4 °F /  24.7 °C 29.73 in /  1006.7 hPa SSE 1.2 mph /  1.9 km/h 3.5 mph /  5.6 km/h 96 % 0.00 in /  0 mm
21:42 77.5 °F /  25.3 °C 76.3 °F /  24.6 °C 29.73 in /  1006.7 hPa SW 4.0 mph /  6.4 km/h 6.9 mph /  11.1 km/h 96 % 0.00 in /  0 mm
21:47 77.5 °F /  25.3 °C 76.3 °F /  24.6 °C 29.73 in /  1006.7 hPa East 1.0 mph /  1.6 km/h 3.5 mph /  5.6 km/h 96 % 0.00 in /  0 mm
21:52 77.3 °F /  25.2 °C 76.1 °F /  24.5 °C 29.73 in /  1006.7 hPa SW 0.5 mph /  0.8 km/h 3.5 mph /  5.6 km/h 96 % 0.00 in /  0 mm
21:57 77.2 °F /  25.1 °C 76.0 °F /  24.4 °C 29.73 in /  1006.7 hPa SSW 0.4 mph /  0.6 km/h 2.3 mph /  3.7 km/h 96 % 0.00 in /  0 mm
22:02 77.0 °F /  25 °C 75.5 °F /  24.2 °C 29.74 in /  1007 hPa WSW 2.9 mph /  4.7 km/h 6.9 mph /  11.1 km/h 95 % 0.00 in /  0 mm
22:07 76.6 °F /  24.8 °C 75.1 °F /  23.9 °C 29.74 in /  1007 hPa WSW 0.6 mph /  1 km/h 5.8 mph /  9.3 km/h 95 % 0.00 in /  0 mm
22:13 76.2 °F /  24.6 °C 74.3 °F /  23.5 °C 29.74 in /  1007 hPa SW 0.8 mph /  1.3 km/h 6.9 mph /  11.1 km/h 94 % 0.00 in /  0 mm
22:18 76.0 °F /  24.4 °C 74.1 °F /  23.4 °C 29.74 in /  1007 hPa SW 0.8 mph /  1.3 km/h 5.8 mph /  9.3 km/h 94 % 0.00 in /  0 mm
22:23 75.8 °F /  24.3 °C 73.9 °F /  23.3 °C 29.74 in /  1007 hPa SW 0.6 mph /  1 km/h 2.0 mph /  3.2 km/h 94 % 0.00 in /  0 mm
22:28 75.6 °F /  24.2 °C 73.8 °F /  23.2 °C 29.74 in /  1007 hPa SW 3.1 mph /  5 km/h 5.8 mph /  9.3 km/h 94 % 0.00 in /  0 mm
22:33 75.3 °F /  24.1 °C 73.5 °F /  23.1 °C 29.74 in /  1007 hPa WSW 4.4 mph /  7.1 km/h 6.9 mph /  11.1 km/h 94 % 0.00 in /  0 mm
22:38 75.1 °F /  23.9 °C 73.3 °F /  22.9 °C 29.75 in /  1007.3 hPa WSW 2.7 mph /  4.3 km/h 3.5 mph /  5.6 km/h 94 % 0.00 in /  0 mm
22:43 74.9 °F /  23.8 °C 73.1 °F /  22.8 °C 29.75 in /  1007.3 hPa SW 0.9 mph /  1.4 km/h 3.5 mph /  5.6 km/h 94 % 0.00 in /  0 mm
22:48 74.8 °F /  23.8 °C 73.0 °F /  22.8 °C 29.75 in /  1007.3 hPa Calm   3.5 mph /  5.6 km/h 94 % 0.00 in /  0 mm
22:53 74.7 °F /  23.7 °C 72.9 °F /  22.7 °C 29.75 in /  1007.3 hPa Calm   2.3 mph /  3.7 km/h 94 % 0.00 in /  0 mm
22:59 74.7 °F /  23.7 °C 72.9 °F /  22.7 °C 29.74 in /  1007 hPa Calm   1.0 mph /  1.6 km/h 94 % 0.00 in /  0 mm
23:04 74.6 °F /  23.7 °C 72.8 °F /  22.7 °C 29.75 in /  1007.3 hPa Calm     94 % 0.00 in /  0 mm
23:09 74.5 °F /  23.6 °C 72.7 °F /  22.6 °C 29.75 in /  1007.3 hPa Calm     94 % 0.00 in /  0 mm
23:14 74.4 °F /  23.6 °C 72.6 °F /  22.6 °C 29.75 in /  1007.3 hPa WSW 1.1 mph /  1.8 km/h 4.0 mph /  6.4 km/h 94 % 0.00 in /  0 mm
23:19 74.4 °F /  23.6 °C 72.6 °F /  22.6 °C 29.75 in /  1007.3 hPa Calm     94 % 0.00 in /  0 mm
23:22 74.3 °F /  23.5 °C 72.5 °F /  22.5 °C 29.75 in /  1007.3 hPa Calm     94 % 0.00 in /  0 mm
23:23 74.3 °F /  23.5 °C 72.5 °F /  22.5 °C 29.75 in /  1007.3 hPa Calm     94 % 0.00 in /  0 mm
23:25 74.3 °F /  23.5 °C 72.5 °F /  22.5 °C 29.75 in /  1007.3 hPa Calm     94 % 0.00 in /  0 mm
23:30 74.2 °F /  23.4 °C 72.4 °F /  22.4 °C 29.75 in /  1007.3 hPa Calm     94 % 0.00 in /  0 mm
23:35 74.1 °F /  23.4 °C 72.3 °F /  22.4 °C 29.75 in /  1007.3 hPa Calm   1.2 mph /  1.9 km/h 94 % 0.00 in /  0 mm
23:40 74.1 °F /  23.4 °C 72.3 °F /  22.4 °C 29.74 in /  1007 hPa Calm     94 % 0.00 in /  0 mm
23:45 74.0 °F /  23.3 °C 72.2 °F /  22.3 °C 29.75 in /  1007.3 hPa Calm   1.2 mph /  1.9 km/h 94 % 0.00 in /  0 mm
23:50 74.0 °F /  23.3 °C 72.2 °F /  22.3 °C 29.74 in /  1007 hPa SW 0.6 mph /  1 km/h 4.0 mph /  6.4 km/h 94 % 0.00 in /  0 mm
23:55 73.9 °F /  23.3 °C 72.4 °F /  22.4 °C 29.74 in /  1007 hPa Calm     95 % 0.00 in /  0 mm
Crab Meadow Weather
Compliments of Weather Underground - 3 mb

Script developed by  Jim McMurry - jmcmurry@mwt.net Adapted for the template by  Wim van der Kuil - Leuven-Template.eu

Heat Index: The heat index combines air temperature and dew point in an attempt to determine the human-perceived equivalent temperature - how hot it feels. The human body normally cools itself by sweating, which evaporates and carries heat away from the body. However, when the relative humidity is high the evaporation rate is reduced, so heat is removed from the body at a lower rate causing it to retain more heat than it would in dry air.